D/T METAR WX W/DIR W/SPE G/SPE TEMP DEWP
6/06/20 10:50 EGPM 060950Z AUTO 23005KT 9999 -RA SCT003/// BKN009/// BKN042/// 12/11 Q0996 -RA SW (230°) 5.8mph 12°C 11°C
6/06/20 10:20 EGPM 060920Z AUTO 24005KT 9999 BKN004/// 12/11 Q0995 WSW (240°) 5.8mph 12°C 11°C
6/06/20 09:50 EGPM 060850Z AUTO 25005KT 9999 SCT008/// 12/10 Q0995 WSW (250°) 5.8mph 12°C 10°C
6/06/20 09:20 EGPM 060820Z AUTO 23008KT 9999 OVC005/// 10/10 Q0996 SW (230°) 9.2mph 10°C 10°C
6/06/20 08:50 EGPM 060750Z AUTO 25007KT 9999 BKN006/// BKN014/// 11/09 Q0995 WSW (250°) 8.1mph 11°C 9°C
6/06/20 08:20 EGPM 060720Z AUTO 25006KT 9999 BKN007/// 10/09 Q0995 WSW (250°) 6.9mph 10°C 9°C
6/06/20 07:50 EGPM 060650Z AUTO 22006KT 9999 SCT006/// 10/09 Q0995 SW (220°) 6.9mph 10°C 9°C
6/06/20 07:20 EGPM 060620Z AUTO 22006KT 9999 BKN005/// 10/09 Q0994 SW (220°) 6.9mph 10°C 9°C
6/06/20 06:50 EGPM 060550Z AUTO 22006KT 9999 FEW004/// 10/09 Q0994 SW (220°) 6.9mph 10°C 9°C
6/06/20 06:20 EGPM 060520Z AUTO 23006KT 9999 SCT005/// 10/09 Q0994 SW (230°) 6.9mph 10°C 9°C
6/06/20 05:50 EGPM 060450Z AUTO 25004KT 9999 -RA FEW003/// BKN018/// BKN034/// 09/09 Q0994 -RA WSW (250°) 4.6mph 9°C 9°C
6/06/20 05:20 EGPM 060420Z AUTO 31002KT 9999 -RA SCT022/// OVC036/// 09/09 Q0994 -RA NW (310°) 2.3mph 9°C 9°C
6/06/20 04:50 EGPM 060350Z AUTO VRB01KT 9999 -RA OVC036/// 09/08 Q0994 -RA N (0°) 1.2mph 9°C 8°C
6/06/20 04:20 EGPM 060320Z AUTO VRB01KT 9999 -RA FEW014/// OVC041/// 09/08 Q0993 -RA N (0°) 1.2mph 9°C 8°C
6/06/20 03:50 EGPM 060250Z AUTO VRB02KT 9999 -RA FEW009/// OVC048/// 09/08 Q0993 -RA N (0°) 2.3mph 9°C 8°C
6/06/20 03:20 EGPM 060220Z AUTO VRB03KT 9999 -RA FEW026/// BKN046/// 09/08 Q0993 -RA N (0°) 3.5mph 9°C 8°C
6/06/20 02:50 EGPM 060150Z AUTO 11005KT 9999 -RA FEW031/// BKN044/// 09/08 Q0993 -RA ESE (110°) 5.8mph 9°C 8°C
6/06/20 02:20 EGPM 060120Z AUTO 00000KT 140V210 9999 NCD 09/08 Q0993 N (0°) 9°C 8°C
6/06/20 01:50 EGPM 060050Z AUTO 00000KT 350V130 9999 BKN007/// 10/09 Q0992 N (0°) 10°C 9°C
6/06/20 01:20 EGPM 060020Z AUTO 00000KT 030V120 9999 BKN006/// 10/09 Q0992 N (0°) 10°C 9°C
6/06/20 00:50 EGPM 052350Z AUTO 01004KT 330V060 9999 BKN007/// 10/09 Q0992 N (10°) 4.6mph 10°C 9°C
6/06/20 00:20 EGPM 052320Z AUTO VRB02KT 9999 FEW004/// 10/09 Q0992 N (0°) 2.3mph 10°C 9°C
5/06/20 23:50 EGPM 052250Z AUTO 08004KT 030V110 9999 FEW021/// 10/09 Q0991 E (80°) 4.6mph 10°C 9°C
5/06/20 23:20 EGPM 052220Z AUTO 09006KT 9999 NCD 10/09 Q0991 E (90°) 6.9mph 10°C 9°C
5/06/20 22:50 EGPM 052150Z AUTO 07007KT 9999 NCD 10/09 Q0991 ENE (70°) 8.1mph 10°C 9°C
5/06/20 22:20 EGPM 052120Z AUTO 05008KT 350V070 9999 -RA FEW019/// 11/09 Q0991 -RA NE (50°) 9.2mph 11°C 9°C
5/06/20 21:50 EGPM 052050Z AUTO 04004KT 350V070 9999 NCD 11/08 Q0990 NE (40°) 4.6mph 11°C 8°C
5/06/20 21:20 EGPM 052020Z AUTO VRB05KT 9999 NCD 11/09 Q0990 N (0°) 5.8mph 11°C 9°C
5/06/20 20:50 EGPM 051950Z AUTO 07004KT 040V100 9999 NCD 11/09 Q0990 ENE (70°) 4.6mph 11°C 9°C
5/06/20 20:20 EGPM 051920Z AUTO 02004KT 9999 NCD 11/09 Q0990 NNE (20°) 4.6mph 11°C 9°C
5/06/20 19:50 EGPM 051850Z AUTO 36006KT 9999 NCD 11/09 Q0989 N (360°) 6.9mph 11°C 9°C
5/06/20 19:20 EGPM 051820Z AUTO 02010KT 9999 NCD 12/09 Q0989 NNE (20°) 11.5mph 12°C 9°C
5/06/20 18:50 EGPM 051750Z AUTO 01012KT 9999 NCD 11/09 Q0989 N (10°) 13.8mph 11°C 9°C
5/06/20 18:20 EGPM 051720Z AUTO 36012KT 9999 NCD 11/09 Q0988 N (360°) 13.8mph 11°C 9°C
5/06/20 17:50 EGPM 051650Z AUTO 01011KT 9999 FEW024/// BKN048/// 12/10 Q0988 N (10°) 12.7mph 12°C 10°C
5/06/20 16:50 EGPM 051550Z AUTO 04014KT 9999 FEW005/// 13/09 Q0988 NE (40°) 16.1mph 13°C 9°C
5/06/20 15:50 EGPM 051450Z AUTO 01013KT 9999 NCD 12/10 Q0988 NOSIG N (10°) 15.0mph 12°C 10°C
5/06/20 15:20 EGPM 051420Z AUTO 01015KT 9999 NCD 11/10 Q0988 N (10°) 17.3mph 11°C 10°C
5/06/20 14:50 EGPM 051350Z AUTO 01017KT 9999 FEW031/// 11/10 Q0988 N (10°) 19.6mph 11°C 10°C
5/06/20 14:20 EGPM 051320Z AUTO 01014KT 9999 FEW030/// BKN044/// 11/09 Q0988 N (10°) 16.1mph 11°C 9°C
5/06/20 13:50 EGPM 051250Z AUTO 01012KT 9999 FEW005/// BKN040/// 11/10 Q0988 N (10°) 13.8mph 11°C 10°C
5/06/20 13:20 EGPM 051220Z AUTO 01013KT 9999 -RA FEW003/// SCT016/// BKN033/// 11/10 Q0988 -RA N (10°) 15.0mph 11°C 10°C
5/06/20 12:50 EGPM 051150Z AUTO 02014KT 9999 -RA FEW007/// SCT016/// BKN025/// 11/10 Q0988 -RA NNE (20°) 16.1mph 11°C 10°C
5/06/20 12:20 EGPM 051120Z 05012KT 9999 -RA FEW010 BKN025 11/10 Q0988 -RA NE (50°) 13.8mph 11°C 10°C
5/06/20 11:20 EGPM 051020Z 03012KT 9000 -RA FEW006 BKN012 10/10 Q0988 TEMPO RA BKN010 -RA NNE (30°) 13.8mph 10°C 10°C
5/06/20 10:50 EGPM 050950Z 01014KT 9000 -RA SCT005 BKN011 10/09 Q0988 TEMPO RA BKN008 -RA N (10°) 16.1mph 10°C 9°C
5/06/20 10:20 EGPM 050920Z 01015KT 9999 -RA SCT004 BKN010 09/09 Q0988 TEMPO RA BKN007 -RA N (10°) 17.3mph 9°C 9°C
5/06/20 10:20 EGPM 050920Z 01015KT 9999 -RA SCT004 BKN010 09/09 Q0988 -RA N (10°) 17.3mph 9°C 9°C
5/06/20 09:20 EGPM 050820Z 01011KT 9999 -RA FEW008 SCT016 BKN030 08/08 Q0989 TEMPO RA BKN014 -RA N (10°) 12.7mph 8°C 8°C
5/06/20 08:50 EGPM 050750Z 02013KT 9999 -RA FEW010 BKN030 08/07 Q0989 TEMPO RA -RA NNE (20°) 15.0mph 8°C 7°C
5/06/20 08:20 EGPM 050720Z 01010KT 9999 -RA FEW008 SCT012 BKN037 09/08 Q0990 TEMPO RA BKN012 -RA N (10°) 11.5mph 9°C 8°C
5/06/20 07:20 EGPM 050620Z 35011KT 9999 VCSH FEW009 SCT012 09/08 Q0990 TEMPO BKN012 VCSH N (350°) 12.7mph 9°C 8°C
5/06/20 06:50 EGPM 050550Z AUTO 34010KT 9999 -RA BKN007/// BKN016/// OVC035/// 08/07 Q0991 -RA NNW (340°) 11.5mph 8°C 7°C
5/06/20 06:20 EGPM 050520Z AUTO 35013KT 9999 -RA FEW002/// BKN006/// BKN016/// 08/07 Q0991 RERA -RA N (350°) 15.0mph 8°C 7°C
5/06/20 05:50 EGPM 050450Z AUTO 35010KT 5000 -RA FEW002/// BKN007/// OVC016/// 08/07 Q0991 -RA N (350°) 11.5mph 8°C 7°C
5/06/20 05:20 EGPM 050420Z AUTO 34010KT 9999 -RA BKN008/// OVC022/// 08/07 Q0992 -RA NNW (340°) 11.5mph 8°C 7°C
5/06/20 04:50 EGPM 050350Z AUTO 34012KT 9999 -RA BKN009/// OVC021/// 08/06 Q0992 RERA -RA NNW (340°) 13.8mph 8°C 6°C
5/06/20 04:20 EGPM 050320Z AUTO 34012KT 9999 -RA FEW008/// SCT013/// BKN025/// 07/06 Q0992 -RA NNW (340°) 13.8mph 7°C 6°C
5/06/20 03:50 EGPM 050250Z AUTO 35012KT 9999 -RA FEW004/// BKN008/// BKN018/// 07/06 Q0993 -RA N (350°) 13.8mph 7°C 6°C
5/06/20 03:20 EGPM 050220Z AUTO 34012KT 9999 SCT013/// BKN027/// OVC047/// 08/06 Q0993 NNW (340°) 13.8mph 8°C 6°C
5/06/20 02:50 EGPM 050150Z AUTO 34011KT 9999 SCT009/// OVC020/// 07/06 Q0993 NNW (340°) 12.7mph 7°C 6°C
5/06/20 02:20 EGPM 050120Z AUTO 35009KT 9999 SCT008/// BKN018/// BKN027/// 07/06 Q0994 N (350°) 10.4mph 7°C 6°C
5/06/20 01:50 EGPM 050050Z AUTO 35011KT 9999 -RA SCT005/// BKN015/// OVC028/// 07/06 Q0994 -RA N (350°) 12.7mph 7°C 6°C
5/06/20 01:20 EGPM 050020Z AUTO 33009KT 9999 SCT032/// SCT048/// 07/05 Q0995 NNW (330°) 10.4mph 7°C 5°C
5/06/20 00:50 EGPM 042350Z AUTO 33010KT 9999 FEW019/// SCT034/// BKN049/// 07/05 Q0995 NNW (330°) 11.5mph 7°C 5°C
5/06/20 00:20 EGPM 042320Z AUTO 33010KT 9999 BKN029/// 07/05 Q0996 NNW (330°) 11.5mph 7°C 5°C
4/06/20 23:50 EGPM 042250Z AUTO 33010KT 9999 FEW008/// SCT030/// 07/05 Q0996 NNW (330°) 11.5mph 7°C 5°C
4/06/20 23:20 EGPM 042220Z AUTO 35011KT 9999 BKN016/// BKN030/// 07/06 Q0996 N (350°) 12.7mph 7°C 6°C
4/06/20 22:50 EGPM 042150Z AUTO 35011KT 9999 BKN025/// BKN040/// 08/05 Q0997 N (350°) 12.7mph 8°C 5°C
4/06/20 22:20 EGPM 042120Z AUTO 35012KT 9999 -RA FEW005/// BKN027/// 07/05 Q0997 -RA N (350°) 13.8mph 7°C 5°C
4/06/20 21:50 EGPM 042050Z AUTO 34012KT 9999 FEW017/// BKN025/// 08/05 Q0997 NNW (340°) 13.8mph 8°C 5°C
4/06/20 21:20 EGPM 042020Z AUTO 34011KT 9999 BKN016/// BKN030/// 08/05 Q0997 NNW (340°) 12.7mph 8°C 5°C
4/06/20 20:50 EGPM 041950Z AUTO 33010KT 9999 FEW014/// BKN030/// 08/05 Q0997 NNW (330°) 11.5mph 8°C 5°C
4/06/20 20:20 EGPM 041920Z AUTO 35012KT 9999 BKN021/// BKN035/// 09/04 Q0998 N (350°) 13.8mph 9°C 4°C
4/06/20 19:50 EGPM 041850Z AUTO 35012KT 9999 BKN020/// BKN034/// 09/04 Q0998 N (350°) 13.8mph 9°C 4°C
4/06/20 19:20 EGPM 041820Z AUTO 35010KT 9999 SCT019/// BKN035/// 09/04 Q0998 N (350°) 11.5mph 9°C 4°C
4/06/20 18:50 EGPM 041750Z AUTO 35011KT 9999 BKN022/// BKN038/// OVC047/// 09/04 Q0998 N (350°) 12.7mph 9°C 4°C
4/06/20 18:20 EGPM 041720Z AUTO 36013KT 320V020 9999 BKN020/// 09/05 Q0998 N (360°) 15.0mph 9°C 5°C
4/06/20 17:50 EGPM 041650Z AUTO 35012KT 9999 BKN020/// OVC038/// 10/05 Q0999 N (350°) 13.8mph 10°C 5°C
4/06/20 17:20 EGPM 041620Z AUTO 35012KT 9999 BKN026/// BKN044/// 10/04 Q0999 N (350°) 13.8mph 10°C 4°C
4/06/20 16:50 EGPM 041550Z AUTO 35012KT 9999 FEW004/// BKN020/// BKN036/// 09/05 Q0999 N (350°) 13.8mph 9°C 5°C
4/06/20 16:20 EGPM 041520Z AUTO 36013KT 9999 BKN015/// BKN036/// 08/05 Q0999 N (360°) 15.0mph 8°C 5°C
4/06/20 15:50 EGPM 041450Z 35010KT 9999 VCSH FEW021 SCT030 09/06 Q1000 RERA NOSIG VCSH N (350°) 11.5mph 9°C 6°C
4/06/20 15:20 EGPM 041420Z 02012KT 9999 -SHRA FEW026 SCT036 08/05 Q1000 TEMPO SHRA -SHRA NNE (20°) 13.8mph 8°C 5°C
4/06/20 14:50 EGPM 041350Z 36012KT 9999 FEW026 SCT036 09/04 Q1000 N (360°) 13.8mph 9°C 4°C
4/06/20 14:20 EGPM 041320Z 36013KT 9999 FEW026 SCT040 09/03 Q1000 NOSIG N (360°) 15.0mph 9°C 3°C
4/06/20 13:50 EGPM 041250Z 35013KT 9999 FEW026 10/03 Q1001 N (350°) 15.0mph 10°C 3°C
4/06/20 13:20 EGPM 041220Z 35014KT 9999 FEW021 10/04 Q1001 N (350°) 16.1mph 10°C 4°C
4/06/20 12:50 EGPM 041150Z 36013KT 330V030 9999 SCT021 09/04 Q1001 NOSIG N (360°) 15.0mph 9°C 4°C
4/06/20 12:20 EGPM 041120Z 36016KT 9999 SCT021 10/04 Q1001 N (360°) 18.4mph 10°C 4°C
4/06/20 11:50 EGPM 041050Z 34010KT 320V020 9999 SCT023 09/05 Q1002 NNW (340°) 11.5mph 9°C 5°C
4/06/20 11:20 EGPM 041020Z 35014KT 9999 VCSH SCT020 10/05 Q1002 NOSIG VCSH N (350°) 16.1mph 10°C 5°C
4/06/20 10:50 EGPM 040950Z 35015KT 9999 -SHRA FEW018 09/05 Q1002 TEMPO SHRA -SHRA N (350°) 17.3mph 9°C 5°C
4/06/20 10:20 EGPM 040920Z 01014KT 9999 FEW020 10/05 Q1002 N (10°) 16.1mph 10°C 5°C
4/06/20 09:50 EGPM 040850Z 36013KT 9999 FEW020 09/04 Q1002 N (360°) 15.0mph 9°C 4°C
4/06/20 09:20 EGPM 040820Z 36014KT 9999 VCSH FEW018 09/04 Q1002 VCSH N (360°) 16.1mph 9°C 4°C